createdAt,value
2023-02-05T00:01:01.523Z,49.73
2023-02-05T00:03:29.958Z,59.30
2023-02-05T00:05:58.394Z,60.67
2023-02-05T00:08:27.640Z,50.60
2023-02-05T00:10:57.453Z,54.67
2023-02-05T00:13:25.900Z,63.40
2023-02-05T00:15:54.325Z,45.60
2023-02-05T00:18:24.095Z,56.10
2023-02-05T00:20:52.492Z,58.93
2023-02-05T00:23:20.928Z,64.07
2023-02-05T00:25:49.345Z,57.80
2023-02-05T00:28:17.665Z,60.37
2023-02-05T00:30:46.273Z,67.10
2023-02-05T00:33:14.755Z,77.27
2023-02-05T00:35:45.869Z,65.87
2023-02-05T00:38:14.989Z,70.43
2023-02-05T00:40:43.374Z,65.53
2023-02-05T00:43:11.884Z,63.33
2023-02-05T00:45:40.262Z,60.40
2023-02-05T00:48:08.828Z,75.37
2023-02-05T00:50:37.471Z,71.10
2023-02-05T00:53:08.513Z,70.03
2023-02-05T00:55:36.910Z,69.40
2023-02-05T00:58:05.517Z,63.97
2023-02-05T01:00:34.182Z,62.20
2023-02-05T01:03:03.138Z,67.50
2023-02-05T01:05:31.761Z,64.27
2023-02-05T01:08:00.360Z,61.60
2023-02-05T01:10:30.202Z,66.10
2023-02-05T01:12:58.716Z,67.60
2023-02-05T01:15:27.402Z,63.03
2023-02-05T01:17:56.034Z,68.60
2023-02-05T01:20:24.351Z,82.03
2023-02-05T01:22:52.737Z,65.13
2023-02-05T01:25:21.351Z,80.03
2023-02-05T01:27:51.099Z,71.97
2023-02-05T01:30:19.647Z,72.33
2023-02-05T01:32:48.113Z,76.80
2023-02-05T01:35:16.759Z,82.80
2023-02-05T01:37:45.128Z,68.97
2023-02-05T01:40:16.028Z,86.80
2023-02-05T01:42:45.006Z,82.43
2023-02-05T01:45:51.863Z,75.67
2023-02-05T01:48:27.782Z,79.93
2023-02-05T01:51:00.533Z,81.00
2023-02-05T01:53:33.059Z,86.23
2023-02-05T01:56:04.864Z,82.87
2023-02-05T01:58:37.230Z,95.00
2023-02-05T02:01:05.997Z,79.87
2023-02-05T02:03:36.793Z,91.60
2023-02-05T02:06:05.774Z,97.20
2023-02-05T02:08:34.325Z,104.47
2023-02-05T02:11:05.857Z,99.03
2023-02-05T02:13:37.113Z,99.23
2023-02-05T02:16:08.081Z,113.60
2023-02-05T02:18:39.477Z,110.00
2023-02-05T02:21:42.014Z,120.73
2023-02-05T02:24:45.417Z,107.33
2023-02-05T02:27:43.357Z,115.57
2023-02-05T02:30:18.402Z,117.40
2023-02-05T02:32:54.013Z,121.67
2023-02-05T02:35:28.940Z,113.57
2023-02-05T02:38:03.088Z,116.03
2023-02-05T02:40:37.392Z,119.83
2023-02-05T02:43:11.091Z,131.50
2023-02-05T02:45:48.289Z,140.33
2023-02-05T02:48:19.396Z,127.63
2023-02-05T02:50:53.304Z,139.20
2023-02-05T02:53:25.730Z,129.60
2023-02-05T02:55:56.780Z,140.67
2023-02-05T02:58:29.129Z,134.07
2023-02-05T03:01:02.531Z,144.07
2023-02-05T03:03:33.843Z,141.63
2023-02-05T03:06:07.195Z,158.67
2023-02-05T03:08:39.866Z,155.27
2023-02-05T03:11:14.546Z,154.10
2023-02-05T03:13:46.031Z,158.43
2023-02-05T03:16:21.369Z,157.50
2023-02-05T03:18:50.762Z,163.03
2023-02-05T03:21:23.826Z,150.37
2023-02-05T03:23:52.330Z,158.77
2023-02-05T03:26:28.674Z,153.13
2023-02-05T03:29:07.904Z,161.33
2023-02-05T03:31:48.172Z,158.47
2023-02-05T03:34:28.620Z,160.97
2023-02-05T03:37:08.994Z,158.67
2023-02-05T03:39:53.084Z,165.10
2023-02-05T03:42:33.290Z,162.80
2023-02-05T03:45:23.188Z,175.37
2023-02-05T03:48:08.229Z,163.13
2023-02-05T03:50:41.258Z,164.47
2023-02-05T03:53:16.699Z,178.10
2023-02-05T03:55:49.757Z,169.50
2023-02-05T03:58:24.624Z,170.90
2023-02-05T04:00:53.065Z,162.07
2023-02-05T04:03:24.150Z,172.17
2023-02-05T04:05:52.950Z,176.10
2023-02-05T04:08:21.430Z,163.57
2023-02-05T04:10:54.000Z,157.03
2023-02-05T04:13:22.938Z,159.90
2023-02-05T04:15:51.992Z,162.53
2023-02-05T04:18:20.936Z,161.73
2023-02-05T04:20:51.863Z,153.63
2023-02-05T04:23:24.261Z,163.53
2023-02-05T04:25:55.166Z,160.27
2023-02-05T04:28:30.186Z,154.90
2023-02-05T04:30:59.023Z,153.87
2023-02-05T04:33:27.493Z,153.83
2023-02-05T04:36:00.922Z,155.57
2023-02-05T04:38:30.280Z,147.47
2023-02-05T04:40:59.368Z,166.20
2023-02-05T04:43:27.938Z,148.10
2023-02-05T04:45:56.271Z,151.60
2023-02-05T04:48:24.731Z,143.27
2023-02-05T04:50:53.076Z,146.60
2023-02-05T04:53:22.869Z,130.07
2023-02-05T04:55:51.134Z,131.13
2023-02-05T04:58:21.126Z,134.90
2023-02-05T05:00:49.584Z,122.40
2023-02-05T05:03:17.891Z,124.67
2023-02-05T05:05:47.179Z,108.43
2023-02-05T05:08:15.543Z,108.30
2023-02-05T05:10:45.216Z,111.63
2023-02-05T05:13:13.550Z,99.97
2023-02-05T05:15:41.953Z,97.90
2023-02-05T05:18:10.260Z,96.80
2023-02-05T05:20:38.594Z,92.40
2023-02-05T05:23:06.959Z,88.30
2023-02-05T05:25:35.642Z,87.00
2023-02-05T05:28:05.927Z,76.80
2023-02-05T05:30:34.242Z,79.77
2023-02-05T05:33:02.581Z,78.77
2023-02-05T05:35:31.104Z,68.43
2023-02-05T05:38:00.057Z,98.07
2023-02-05T05:40:45.261Z,66.57
2023-02-05T05:43:34.584Z,65.30
2023-02-05T05:46:03.302Z,60.03
2023-02-05T05:48:32.277Z,61.73
2023-02-05T05:51:00.589Z,63.70
2023-02-05T05:53:29.134Z,62.87
2023-02-05T05:55:57.542Z,60.87
2023-02-05T05:58:27.381Z,56.60
2023-02-05T06:00:56.077Z,52.33
2023-02-05T06:03:24.587Z,50.27
2023-02-05T06:05:52.915Z,54.93
2023-02-05T06:08:21.241Z,48.57
2023-02-05T06:10:49.771Z,48.90
2023-02-05T06:13:18.109Z,49.00
2023-02-05T06:15:49.255Z,47.83
2023-02-05T06:18:17.713Z,48.23
2023-02-05T06:20:46.339Z,42.70
2023-02-05T06:23:14.919Z,39.20
2023-02-05T06:25:43.280Z,41.83
2023-02-05T06:28:11.875Z,42.27
2023-02-05T06:30:40.557Z,41.53
2023-02-05T06:33:11.644Z,39.57
2023-02-05T06:35:40.040Z,39.77
2023-02-05T06:38:08.529Z,47.13
2023-02-05T06:40:36.992Z,46.30
2023-02-05T06:43:05.332Z,43.33
2023-02-05T06:45:34.007Z,40.27
2023-02-05T06:48:02.472Z,40.17
2023-02-05T06:50:32.353Z,44.80
2023-02-05T06:53:00.722Z,44.03
2023-02-05T06:55:29.054Z,47.23
2023-02-05T06:57:57.504Z,42.87
2023-02-05T07:00:26.114Z,45.80
2023-02-05T07:02:55.267Z,43.73
2023-02-05T07:05:23.840Z,44.67
2023-02-05T07:07:53.602Z,40.27
2023-02-05T07:10:22.004Z,42.40
2023-02-05T07:12:50.299Z,50.30
2023-02-05T07:15:18.847Z,48.83
2023-02-05T07:17:47.208Z,52.37
2023-02-05T07:20:16.806Z,43.67
2023-02-05T07:22:47.180Z,41.90
2023-02-05T07:25:16.974Z,47.67
2023-02-05T07:27:45.349Z,44.63
2023-02-05T07:30:15.057Z,38.93
2023-02-05T07:32:43.486Z,38.30
2023-02-05T07:35:12.002Z,37.80
2023-02-05T07:37:40.611Z,33.67
2023-02-05T07:40:10.426Z,31.07
2023-02-05T07:42:40.100Z,25.97
2023-02-05T07:45:10.585Z,15.53
2023-02-05T07:47:39.069Z,10.80
2023-02-05T07:50:08.028Z,13.33
2023-02-05T07:52:36.385Z,10.60
2023-02-05T07:55:04.863Z,10.97
2023-02-05T07:57:33.282Z,10.37
2023-02-05T08:00:02.988Z,12.03
2023-02-05T08:02:40.609Z,10.40
2023-02-05T08:05:09.566Z,10.40
2023-02-05T08:07:38.611Z,7.23
2023-02-05T08:10:07.730Z,7.00
2023-02-05T08:12:36.147Z,4.60
2023-02-05T08:15:06.238Z,8.77
2023-02-05T08:17:34.643Z,9.50
2023-02-05T08:20:07.182Z,5.70
2023-02-05T08:22:36.844Z,6.33
2023-02-05T08:25:07.179Z,4.40
2023-02-05T08:27:36.454Z,5.37
2023-02-05T08:30:07.487Z,5.53
2023-02-05T08:32:36.037Z,6.50
2023-02-05T08:35:04.506Z,3.80
2023-02-05T08:37:32.876Z,4.67
2023-02-05T08:40:01.307Z,10.23
2023-02-05T08:42:29.835Z,7.40
2023-02-05T08:44:59.591Z,9.90
2023-02-05T08:47:29.492Z,11.27
2023-02-05T08:49:58.463Z,10.67
2023-02-05T08:52:32.588Z,11.30
2023-02-05T08:55:02.781Z,9.13
2023-02-05T08:57:32.227Z,9.47
2023-02-05T09:00:00.729Z,7.67
2023-02-05T09:02:32.132Z,10.63
2023-02-05T09:05:08.559Z,15.63
2023-02-05T09:07:38.821Z,9.60
2023-02-05T09:10:08.608Z,11.00
2023-02-05T09:12:37.409Z,6.80
2023-02-05T09:15:06.647Z,17.73
2023-02-05T09:17:36.823Z,10.07
2023-02-05T09:20:06.470Z,19.37
2023-02-05T09:22:34.916Z,15.47
2023-02-05T09:25:03.426Z,11.63
2023-02-05T09:27:32.021Z,12.53
2023-02-05T09:30:00.528Z,13.33
2023-02-05T09:32:29.025Z,17.73
2023-02-05T09:34:58.879Z,18.40
2023-02-05T09:37:27.381Z,13.83
2023-02-05T09:40:19.935Z,20.00
2023-02-05T09:42:52.247Z,13.33
2023-02-05T09:45:38.517Z,16.47
2023-02-05T09:48:23.860Z,14.53
2023-02-05T09:50:54.470Z,13.17
2023-02-05T09:53:24.007Z,18.97
2023-02-05T09:55:52.611Z,13.47
2023-02-05T09:58:25.531Z,18.10
2023-02-05T10:01:00.740Z,13.83
2023-02-05T10:03:33.351Z,20.87
2023-02-05T10:06:22.241Z,16.33
2023-02-05T10:08:59.227Z,18.07
2023-02-05T10:11:32.575Z,20.53
2023-02-05T10:14:10.564Z,19.27
2023-02-05T10:16:54.682Z,10.73
2023-02-05T10:19:44.148Z,23.73
2023-02-05T10:22:22.697Z,21.07
2023-02-05T10:25:14.251Z,16.97
2023-02-05T10:27:54.765Z,14.67
2023-02-05T10:30:29.681Z,17.37
2023-02-05T10:33:00.777Z,24.90
2023-02-05T10:35:44.360Z,23.90
2023-02-05T10:38:18.331Z,16.47
2023-02-05T10:40:47.329Z,20.50
2023-02-05T10:43:23.157Z,14.70
2023-02-05T10:45:52.833Z,27.70
2023-02-05T10:48:34.067Z,14.53
2023-02-05T10:51:05.139Z,24.53
2023-02-05T10:53:36.337Z,21.73
2023-02-05T10:56:06.372Z,22.07
2023-02-05T10:58:41.618Z,24.70
2023-02-05T11:01:16.881Z,17.10
2023-02-05T11:03:53.599Z,24.03
2023-02-05T11:06:24.573Z,19.37
2023-02-05T11:08:54.734Z,22.27
2023-02-05T11:11:28.161Z,19.07
2023-02-05T11:14:00.434Z,27.17
2023-02-05T11:16:39.424Z,28.80
2023-02-05T11:19:21.490Z,21.77
2023-02-05T11:21:54.325Z,19.20
2023-02-05T11:24:30.593Z,27.43
2023-02-05T11:27:26.663Z,18.03
2023-02-05T11:29:55.745Z,22.43
2023-02-05T11:32:33.807Z,28.63
2023-02-05T11:35:20.700Z,22.47
2023-02-05T11:37:50.955Z,23.37
2023-02-05T11:40:24.488Z,19.83
2023-02-05T11:43:01.283Z,14.93
2023-02-05T11:45:31.018Z,20.53
2023-02-05T11:48:02.500Z,20.80
2023-02-05T11:50:33.053Z,22.17
2023-02-05T11:53:16.383Z,31.97
2023-02-05T11:55:47.237Z,27.07
2023-02-05T11:58:36.173Z,24.03
2023-02-05T12:01:07.397Z,24.73
2023-02-05T12:03:36.710Z,22.37
2023-02-05T12:06:15.658Z,22.40
2023-02-05T12:08:49.374Z,20.90
2023-02-05T12:12:01.164Z,21.77
2023-02-05T12:14:44.482Z,18.77
2023-02-05T12:17:29.207Z,18.30
2023-02-05T12:20:03.033Z,29.80
2023-02-05T12:22:54.358Z,19.43
2023-02-05T12:25:30.018Z,26.50
2023-02-05T12:28:15.539Z,12.33
2023-02-05T12:31:03.648Z,16.67
2023-02-05T12:33:45.037Z,22.37
2023-02-05T12:36:28.113Z,19.17
2023-02-05T12:39:10.207Z,14.27
2023-02-05T12:41:48.794Z,12.33
2023-02-05T12:44:32.288Z,13.77
2023-02-05T12:47:15.948Z,12.70
2023-02-05T12:50:04.898Z,14.00
2023-02-05T12:52:51.340Z,15.97
2023-02-05T12:55:33.376Z,15.67
2023-02-05T12:58:05.039Z,13.30
2023-02-05T13:00:42.674Z,12.73
2023-02-05T13:03:20.228Z,22.00
2023-02-05T13:05:53.605Z,18.67
2023-02-05T13:08:26.415Z,13.40
2023-02-05T13:10:58.975Z,17.77
2023-02-05T13:13:36.995Z,15.23
2023-02-05T13:16:11.432Z,15.97
2023-02-05T13:18:44.689Z,28.73
2023-02-05T13:21:35.690Z,17.50
2023-02-05T13:24:40.894Z,16.83
2023-02-05T13:27:38.532Z,17.40
2023-02-05T13:30:13.730Z,22.23
2023-02-05T13:32:49.076Z,21.13
2023-02-05T13:35:18.099Z,29.63
2023-02-05T13:37:59.967Z,22.27
2023-02-05T13:40:45.269Z,26.67
2023-02-05T13:43:52.569Z,25.33
2023-02-05T13:46:41.295Z,27.60
2023-02-05T13:49:44.408Z,33.03
2023-02-05T13:52:30.463Z,25.17
2023-02-05T13:55:13.052Z,27.07
2023-02-05T13:58:14.250Z,29.13
2023-02-05T14:00:45.816Z,19.23
2023-02-05T14:03:35.259Z,26.43
2023-02-05T14:06:23.289Z,23.30
2023-02-05T14:08:58.040Z,29.77
2023-02-05T14:11:26.920Z,26.90
2023-02-05T14:14:25.054Z,19.93
2023-02-05T14:16:55.089Z,23.00
2023-02-05T14:19:26.927Z,24.00
2023-02-05T14:22:07.889Z,27.30
2023-02-05T14:24:43.602Z,25.80
2023-02-05T14:27:49.369Z,18.77
2023-02-05T14:30:52.987Z,21.10
2023-02-05T14:33:36.978Z,15.13
2023-02-05T14:36:34.359Z,16.00
2023-02-05T14:39:07.510Z,16.77
2023-02-05T14:41:50.793Z,19.33
2023-02-05T14:44:23.585Z,18.47
2023-02-05T14:47:07.217Z,19.13
2023-02-05T14:49:43.818Z,25.67
2023-02-05T14:52:26.882Z,18.07
2023-02-05T14:55:02.720Z,23.37
2023-02-05T14:57:43.852Z,23.27
2023-02-05T15:00:29.128Z,25.83
2023-02-05T15:03:15.455Z,16.87
2023-02-05T15:05:51.316Z,21.37
2023-02-05T15:08:27.620Z,26.33
2023-02-05T15:11:06.478Z,20.97
2023-02-05T15:13:35.189Z,22.80
2023-02-05T15:16:24.381Z,14.60
2023-02-05T15:18:54.192Z,26.03
2023-02-05T15:21:29.140Z,17.90
2023-02-05T15:24:02.691Z,22.33
2023-02-05T15:26:42.353Z,18.10
2023-02-05T15:29:15.879Z,24.73
2023-02-05T15:31:49.675Z,20.80
2023-02-05T15:34:30.264Z,18.93
2023-02-05T15:37:05.608Z,31.03
2023-02-05T15:39:46.446Z,33.03
2023-02-05T15:42:20.428Z,25.70
2023-02-05T15:44:49.364Z,29.23
2023-02-05T15:47:22.250Z,24.77
2023-02-05T15:49:53.337Z,32.00
2023-02-05T15:52:24.744Z,28.63
2023-02-05T15:54:56.284Z,19.43
2023-02-05T15:57:29.997Z,26.07
2023-02-05T16:00:00.711Z,26.77
2023-02-05T16:02:30.330Z,26.77
2023-02-05T16:05:00.174Z,25.87
2023-02-05T16:07:30.522Z,29.80
2023-02-05T16:10:00.879Z,23.63
2023-02-05T16:12:31.872Z,16.10
2023-02-05T16:15:02.591Z,26.03
2023-02-05T16:17:40.773Z,24.37
2023-02-05T16:20:23.950Z,27.97
2023-02-05T16:22:58.440Z,17.03
2023-02-05T16:25:36.109Z,34.07
2023-02-05T16:28:14.859Z,25.50
2023-02-05T16:30:45.615Z,25.17
2023-02-05T16:33:25.456Z,30.03
2023-02-05T16:35:55.200Z,27.87
2023-02-05T16:38:24.419Z,17.67
2023-02-05T16:40:55.796Z,30.00
2023-02-05T16:43:32.940Z,32.10
2023-02-05T16:46:35.414Z,29.23
2023-02-05T16:49:05.705Z,20.97
2023-02-05T16:51:56.397Z,20.83
2023-02-05T16:54:31.071Z,27.77
2023-02-05T16:57:04.113Z,22.50
2023-02-05T16:59:38.899Z,25.63
2023-02-05T17:02:07.724Z,21.63
2023-02-05T17:04:38.957Z,31.93
2023-02-05T17:07:18.641Z,20.93
2023-02-05T17:09:47.171Z,25.00
2023-02-05T17:12:26.847Z,23.90
2023-02-05T17:14:58.569Z,23.13
2023-02-05T17:17:28.032Z,24.83
2023-02-05T17:20:18.915Z,26.23
2023-02-05T17:23:08.918Z,29.00
2023-02-05T17:25:39.929Z,28.20
2023-02-05T17:28:15.327Z,26.47
2023-02-05T17:30:46.821Z,31.37
2023-02-05T17:33:18.314Z,24.73
2023-02-05T17:35:46.912Z,27.67
2023-02-05T17:38:16.021Z,29.07
2023-02-05T17:40:45.474Z,29.60
2023-02-05T17:43:14.008Z,30.67
2023-02-05T17:45:44.933Z,30.70
2023-02-05T17:48:13.618Z,34.30
2023-02-05T17:50:42.055Z,33.70
2023-02-05T17:53:14.137Z,28.37
2023-02-05T17:55:42.668Z,27.60
2023-02-05T17:58:11.402Z,26.20
2023-02-05T18:00:39.963Z,20.27
2023-02-05T18:03:09.961Z,30.97
2023-02-05T18:05:38.541Z,23.10
2023-02-05T18:08:07.573Z,23.00
2023-02-05T18:10:37.069Z,30.87
2023-02-05T18:13:05.842Z,25.53
2023-02-05T18:15:34.296Z,22.87
2023-02-05T18:18:02.772Z,29.87
2023-02-05T18:20:32.724Z,24.63
2023-02-05T18:23:03.130Z,27.07
2023-02-05T18:25:31.644Z,33.27
2023-02-05T18:28:00.247Z,31.70
2023-02-05T18:30:29.809Z,26.33
2023-02-05T18:32:58.333Z,33.00
2023-02-05T18:35:26.847Z,20.03
2023-02-05T18:37:56.760Z,29.90
2023-02-05T18:40:25.454Z,36.30
2023-02-05T18:42:59.713Z,36.20
2023-02-05T18:45:28.150Z,29.23
2023-02-05T18:47:56.605Z,27.37
2023-02-05T18:50:28.003Z,33.93
2023-02-05T18:52:57.884Z,25.37
2023-02-05T18:55:26.976Z,26.00
2023-02-05T18:57:55.412Z,30.00
2023-02-05T19:00:24.097Z,42.97
2023-02-05T19:02:52.718Z,28.90
2023-02-05T19:05:21.264Z,38.40
2023-02-05T19:07:52.219Z,31.27
2023-02-05T19:10:22.327Z,31.10
2023-02-05T19:12:53.054Z,30.83
2023-02-05T19:15:21.646Z,33.40
2023-02-05T19:17:50.208Z,35.23
2023-02-05T19:20:19.238Z,34.70
2023-02-05T19:22:47.661Z,41.40
2023-02-05T19:25:16.300Z,31.20
2023-02-05T19:27:46.309Z,32.87
2023-02-05T19:30:15.262Z,30.67
2023-02-05T19:32:43.624Z,31.13
2023-02-05T19:35:12.138Z,37.33
2023-02-05T19:37:40.675Z,39.00
2023-02-05T19:40:12.505Z,42.07
2023-02-05T19:42:44.726Z,38.27
2023-02-05T19:45:15.274Z,33.57
2023-02-05T19:47:43.917Z,33.57
2023-02-05T19:50:12.424Z,24.43
2023-02-05T19:52:41.037Z,33.60
2023-02-05T19:55:09.690Z,38.57
2023-02-05T19:57:40.640Z,26.50
2023-02-05T20:00:10.673Z,41.03
2023-02-05T20:02:43.532Z,33.30
2023-02-05T20:05:12.472Z,41.50
2023-02-05T20:07:41.269Z,40.10
2023-02-05T20:10:10.531Z,30.13
2023-02-05T20:12:39.089Z,37.97
2023-02-05T20:15:08.860Z,35.17
2023-02-05T20:17:37.900Z,38.00
2023-02-05T20:20:15.723Z,32.00
2023-02-05T20:22:49.811Z,37.40
2023-02-05T20:25:18.599Z,23.43
2023-02-05T20:27:47.237Z,33.20
2023-02-05T20:30:35.997Z,34.93
2023-02-05T20:33:04.915Z,22.13
2023-02-05T20:35:36.224Z,30.27
2023-02-05T20:38:04.813Z,20.30
2023-02-05T20:40:33.491Z,35.10
2023-02-05T20:43:02.645Z,37.47
2023-02-05T20:45:32.925Z,38.60
2023-02-05T20:48:02.283Z,34.63
2023-02-05T20:50:30.765Z,29.93
2023-02-05T20:53:00.796Z,25.33
2023-02-05T20:55:29.890Z,33.67
2023-02-05T20:57:58.294Z,35.23
2023-02-05T21:00:27.589Z,44.90
2023-02-05T21:02:56.194Z,44.93
2023-02-05T21:05:24.754Z,39.00
2023-02-05T21:07:53.170Z,37.30
2023-02-05T21:10:22.977Z,46.33
2023-02-05T21:12:51.486Z,43.43
2023-02-05T21:15:19.865Z,43.40
2023-02-05T21:17:48.740Z,34.90
2023-02-05T21:20:18.059Z,42.13
2023-02-05T21:22:46.736Z,41.13
2023-02-05T21:25:15.316Z,44.80
2023-02-05T21:27:45.086Z,42.03
2023-02-05T21:30:14.385Z,37.03
2023-02-05T21:32:42.814Z,37.50
2023-02-05T21:35:11.470Z,41.10
2023-02-05T21:37:40.058Z,37.50
2023-02-05T21:40:09.896Z,35.90
2023-02-05T21:42:38.554Z,28.77
2023-02-05T21:45:09.610Z,25.73
2023-02-05T21:47:38.320Z,28.13
2023-02-05T21:50:08.204Z,28.47
2023-02-05T21:52:36.988Z,24.00
2023-02-05T21:55:06.177Z,28.47
2023-02-05T21:57:35.723Z,28.30
2023-02-05T22:00:04.891Z,30.97
2023-02-05T22:02:42.129Z,23.97
2023-02-05T22:05:11.040Z,28.70
2023-02-05T22:07:39.515Z,28.00
2023-02-05T22:10:08.270Z,28.07
2023-02-05T22:12:37.080Z,18.57
2023-02-05T22:15:06.254Z,42.33
2023-02-05T22:17:34.792Z,30.97
2023-02-05T22:20:04.946Z,25.87
2023-02-05T22:22:33.348Z,24.57
2023-02-05T22:25:01.881Z,27.47
2023-02-05T22:27:30.663Z,17.10
2023-02-05T22:29:59.417Z,21.37
2023-02-05T22:32:29.250Z,27.17
2023-02-05T22:35:00.924Z,20.53
2023-02-05T22:37:31.011Z,22.67
2023-02-05T22:40:00.137Z,27.10
2023-02-05T22:42:28.601Z,17.43
2023-02-05T22:44:57.094Z,22.83
2023-02-05T22:47:25.522Z,27.17
2023-02-05T22:49:53.940Z,27.33
2023-02-05T22:52:22.354Z,23.90
2023-02-05T22:54:52.274Z,27.80
2023-02-05T22:57:20.626Z,23.83
2023-02-05T22:59:48.974Z,31.13
2023-02-05T23:02:17.368Z,20.57
2023-02-05T23:04:45.715Z,31.47
2023-02-05T23:07:14.072Z,21.00
2023-02-05T23:09:42.420Z,21.53
2023-02-05T23:12:12.134Z,38.40
2023-02-05T23:14:40.426Z,26.77
2023-02-05T23:17:08.706Z,25.10
2023-02-05T23:19:37.076Z,32.80
2023-02-05T23:22:09.666Z,26.60
2023-02-05T23:24:38.192Z,41.03
2023-02-05T23:27:06.868Z,26.27
2023-02-05T23:29:37.754Z,23.83
2023-02-05T23:32:07.128Z,34.97
2023-02-05T23:34:35.667Z,28.87
2023-02-05T23:37:04.060Z,16.10
2023-02-05T23:39:32.396Z,27.43
2023-02-05T23:42:00.763Z,20.70
2023-02-05T23:44:29.132Z,18.70
2023-02-05T23:46:59.979Z,23.50
2023-02-05T23:49:28.516Z,22.33
2023-02-05T23:51:57.202Z,25.13
2023-02-05T23:54:25.785Z,19.80
2023-02-05T23:56:54.216Z,23.43
2023-02-05T23:59:23.006Z,24.40
